Time,TemperatureF,DewpointF,PressureIn,WindDirection,WindDirectionDegrees,WindSpeedMPH,WindSpeedGustMPH,Humidity,HourlyPrecipIn,Conditions,Clouds,dailyrainin,SoftwareType,DateUTC
2013-06-26 00:11:00,74.2,70.0,29.62,SSE,155,4.0,5.0,87,0.00,,,0.00,weatherlink.com 1.10,2013-06-26 05:11:00,
2013-06-26 00:26:00,73.7,70.0,29.61,SSE,156,3.0,4.0,89,0.00,,,0.00,weatherlink.com 1.10,2013-06-26 05:26:00,
2013-06-26 00:41:00,73.5,71.0,29.61,ESE,117,2.0,4.0,90,0.00,,,0.00,weatherlink.com 1.10,2013-06-26 05:41:00,
2013-06-26 00:57:00,73.2,70.0,29.61,South,181,2.0,4.0,90,0.00,,,0.00,weatherlink.com 1.10,2013-06-26 05:57:00,
2013-06-26 01:12:00,73.3,71.0,29.61,South,170,2.0,4.0,91,0.00,,,0.00,weatherlink.com 1.10,2013-06-26 06:12:00,
2013-06-26 01:27:00,73.3,71.0,29.61,SSE,162,1.0,2.0,91,0.00,,,0.00,weatherlink.com 1.10,2013-06-26 06:27:00,
2013-06-26 01:42:00,73.5,71.0,29.60,SSE,155,2.0,3.0,91,0.00,,,0.00,weatherlink.com 1.10,2013-06-26 06:42:00,
2013-06-26 01:57:00,73.6,71.0,29.60,South,190,1.0,3.0,92,0.00,,,0.00,weatherlink.com 1.10,2013-06-26 06:57:00,
2013-06-26 02:12:00,73.6,71.0,29.59,SSE,159,1.0,2.0,92,0.00,,,0.00,weatherlink.com 1.10,2013-06-26 07:12:00,
2013-06-26 02:27:00,73.6,71.0,29.59,South,172,1.0,3.0,92,0.00,,,0.00,weatherlink.com 1.10,2013-06-26 07:27:00,
2013-06-26 02:42:00,73.6,72.0,29.59,SSE,163,1.0,2.0,93,0.00,,,0.00,weatherlink.com 1.10,2013-06-26 07:42:00,
2013-06-26 02:57:00,73.2,71.0,29.59,South,191,1.0,2.0,93,0.00,,,0.00,weatherlink.com 1.10,2013-06-26 07:57:00,
2013-06-26 03:12:00,72.4,71.0,29.59,SSW,212,1.0,2.0,94,0.00,,,0.00,weatherlink.com 1.10,2013-06-26 08:12:00,
2013-06-26 03:27:00,72.5,71.0,29.59,SW,233,2.0,2.0,95,0.00,,,0.00,weatherlink.com 1.10,2013-06-26 08:27:00,
2013-06-26 03:42:00,71.8,70.0,29.60,SSW,205,0.0,1.0,95,0.00,,,0.00,weatherlink.com 1.10,2013-06-26 08:42:00,
2013-06-26 03:57:00,71.6,70.0,29.60,SSW,205,0.0,0.0,96,0.00,,,0.00,weatherlink.com 1.10,2013-06-26 08:57:00,
2013-06-26 04:12:00,71.6,71.0,29.60,South,186,2.0,2.0,97,0.00,,,0.00,weatherlink.com 1.10,2013-06-26 09:12:00,
2013-06-26 04:27:00,71.7,71.0,29.60,South,187,1.0,2.0,97,0.00,,,0.00,weatherlink.com 1.10,2013-06-26 09:27:00,
2013-06-26 04:42:00,71.6,71.0,29.59,SE,146,1.0,3.0,97,0.00,,,0.00,weatherlink.com 1.10,2013-06-26 09:42:00,
2013-06-26 04:57:00,71.5,71.0,29.60,SSW,195,2.0,2.0,97,0.00,,,0.00,weatherlink.com 1.10,2013-06-26 09:57:00,
2013-06-26 05:12:00,71.6,71.0,29.60,SSW,208,2.0,3.0,97,0.00,,,0.00,weatherlink.com 1.10,2013-06-26 10:12:00,
2013-06-26 05:27:00,71.6,71.0,29.60,SSW,194,1.0,3.0,97,0.00,,,0.00,weatherlink.com 1.10,2013-06-26 10:27:00,
2013-06-26 05:42:00,71.4,71.0,29.60,SSW,205,1.0,2.0,97,0.00,,,0.00,weatherlink.com 1.10,2013-06-26 10:42:00,
2013-06-26 05:57:00,71.4,71.0,29.61,SSW,205,3.0,4.0,98,0.00,,,0.00,weatherlink.com 1.10,2013-06-26 10:57:00,
2013-06-26 06:12:00,71.1,70.0,29.61,SSW,212,2.0,3.0,97,0.00,,,0.00,weatherlink.com 1.10,2013-06-26 11:12:00,
2013-06-26 06:27:00,71.1,71.0,29.61,SW,219,2.0,2.0,98,0.00,,,0.00,weatherlink.com 1.10,2013-06-26 11:27:00,
2013-06-26 06:42:00,71.4,71.0,29.62,West,262,3.0,4.0,98,0.00,,,0.00,weatherlink.com 1.10,2013-06-26 11:42:00,
2013-06-26 06:57:00,71.5,71.0,29.63,SW,236,3.0,5.0,98,0.00,,,0.00,weatherlink.com 1.10,2013-06-26 11:57:00,
2013-06-26 07:12:00,72.1,72.0,29.63,WSW,252,2.0,3.0,98,0.00,,,0.00,weatherlink.com 1.10,2013-06-26 12:12:00,
2013-06-26 07:27:00,73.3,72.0,29.63,West,262,2.0,5.0,96,0.00,,,0.00,weatherlink.com 1.10,2013-06-26 12:27:00,
2013-06-26 07:42:00,74.3,73.0,29.63,West,277,4.0,7.0,95,0.00,,,0.00,weatherlink.com 1.10,2013-06-26 12:42:00,
2013-06-26 07:57:00,75.2,73.0,29.63,West,274,6.0,9.0,93,0.00,,,0.00,weatherlink.com 1.10,2013-06-26 12:57:00,
2013-06-26 08:12:00,75.5,73.0,29.63,NW,323,4.0,9.0,91,0.00,,,0.00,weatherlink.com 1.10,2013-06-26 13:12:00,
2013-06-26 08:27:00,76.4,73.0,29.64,NW,311,4.0,12.0,90,0.00,,,0.00,weatherlink.com 1.10,2013-06-26 13:27:00,
2013-06-26 08:42:00,77.0,73.0,29.64,NW,313,9.0,15.0,87,0.00,,,0.00,weatherlink.com 1.10,2013-06-26 13:42:00,
2013-06-26 08:57:00,77.5,73.0,29.65,WNW,291,13.0,15.0,85,0.00,,,0.00,weatherlink.com 1.10,2013-06-26 13:57:00,
2013-06-26 09:12:00,76.9,72.0,29.65,North,8,9.0,13.0,85,0.00,,,0.00,weatherlink.com 1.10,2013-06-26 14:12:00,
2013-06-26 09:27:00,78.8,72.0,29.66,NNW,339,8.0,16.0,80,0.00,,,0.00,weatherlink.com 1.10,2013-06-26 14:27:00,
2013-06-26 09:42:00,77.9,72.0,29.66,NW,314,7.0,14.0,82,0.00,,,0.00,weatherlink.com 1.10,2013-06-26 14:42:00,
2013-06-26 09:57:00,79.2,71.0,29.67,NW,307,12.0,13.0,76,0.00,,,0.00,weatherlink.com 1.10,2013-06-26 14:57:00,
2013-06-26 10:12:00,78.5,71.0,29.67,NNW,333,12.0,18.0,78,0.00,,,0.00,weatherlink.com 1.10,2013-06-26 15:12:00,
2013-06-26 10:27:00,79.1,71.0,29.68,NNW,334,8.0,16.0,76,0.00,,,0.00,weatherlink.com 1.10,2013-06-26 15:27:00,
2013-06-26 10:42:00,79.3,70.0,29.68,NW,321,7.0,17.0,74,0.00,,,0.00,weatherlink.com 1.10,2013-06-26 15:42:00,
2013-06-26 10:57:00,79.7,71.0,29.68,NW,319,12.0,17.0,74,0.00,,,0.00,weatherlink.com 1.10,2013-06-26 15:57:00,
2013-06-26 11:13:00,80.3,71.0,29.69,NW,305,8.0,19.0,73,0.00,,,0.00,weatherlink.com 1.10,2013-06-26 16:13:00,
2013-06-26 11:28:00,80.8,70.0,29.69,NW,323,9.0,18.0,70,0.00,,,0.00,weatherlink.com 1.10,2013-06-26 16:28:00,
2013-06-26 11:43:00,81.6,71.0,29.70,NW,312,12.0,18.0,70,0.00,,,0.00,weatherlink.com 1.10,2013-06-26 16:43:00,
2013-06-26 11:58:00,82.3,71.0,29.70,NW,321,14.0,19.0,68,0.00,,,0.00,weatherlink.com 1.10,2013-06-26 16:58:00,
2013-06-26 12:13:00,83.1,70.0,29.70,NW,307,13.0,20.0,64,0.00,,,0.00,weatherlink.com 1.10,2013-06-26 17:13:00,
2013-06-26 12:28:00,83.4,69.0,29.71,WNW,299,15.0,21.0,62,0.00,,,0.00,weatherlink.com 1.10,2013-06-26 17:28:00,
2013-06-26 12:43:00,84.0,66.0,29.71,NNW,346,17.0,21.0,54,0.00,,,0.00,weatherlink.com 1.10,2013-06-26 17:43:00,
2013-06-26 12:58:00,84.6,66.0,29.71,NW,323,14.0,19.0,53,0.00,,,0.00,weatherlink.com 1.10,2013-06-26 17:58:00,
2013-06-26 13:13:00,84.5,65.0,29.71,WNW,296,15.0,22.0,53,0.00,,,0.00,weatherlink.com 1.10,2013-06-26 18:13:00,
2013-06-26 13:28:00,84.5,64.0,29.72,WNW,303,13.0,25.0,51,0.00,,,0.00,weatherlink.com 1.10,2013-06-26 18:28:00,
2013-06-26 13:43:00,84.9,64.0,29.71,NW,314,13.0,21.0,50,0.00,,,0.00,weatherlink.com 1.10,2013-06-26 18:43:00,
2013-06-26 13:58:00,84.8,64.0,29.72,NW,307,16.0,25.0,50,0.00,,,0.00,weatherlink.com 1.10,2013-06-26 18:58:00,
2013-06-26 14:13:00,85.2,64.0,29.72,NW,307,8.0,25.0,49,0.00,,,0.00,weatherlink.com 1.10,2013-06-26 19:13:00,
2013-06-26 14:28:00,85.8,62.0,29.72,NNW,343,21.0,25.0,45,0.00,,,0.00,weatherlink.com 1.10,2013-06-26 19:28:00,
2013-06-26 14:43:00,85.4,61.0,29.72,North,350,18.0,25.0,44,0.00,,,0.00,weatherlink.com 1.10,2013-06-26 19:43:00,
2013-06-26 14:58:00,85.9,64.0,29.72,NNW,338,14.0,26.0,48,0.00,,,0.00,weatherlink.com 1.10,2013-06-26 19:58:00,
2013-06-26 15:13:00,85.7,63.0,29.72,NW,307,15.0,22.0,46,0.00,,,0.00,weatherlink.com 1.10,2013-06-26 20:13:00,
2013-06-26 15:28:00,85.7,62.0,29.72,WNW,298,8.0,26.0,45,0.00,,,0.00,weatherlink.com 1.10,2013-06-26 20:28:00,
2013-06-26 15:43:00,85.6,61.0,29.72,SSW,211,10.0,26.0,44,0.00,,,0.00,weatherlink.com 1.10,2013-06-26 20:43:00,
2013-06-26 15:58:00,85.5,62.0,29.72,NW,319,17.0,24.0,45,0.00,,,0.00,weatherlink.com 1.10,2013-06-26 20:58:00,
2013-06-26 16:13:00,85.6,62.0,29.73,NW,321,13.0,21.0,45,0.00,,,0.00,weatherlink.com 1.10,2013-06-26 21:13:00,
2013-06-26 16:28:00,85.5,62.0,29.73,NW,317,19.0,22.0,46,0.00,,,0.00,weatherlink.com 1.10,2013-06-26 21:28:00,
2013-06-26 16:43:00,85.6,62.0,29.73,WNW,295,12.0,20.0,45,0.00,,,0.00,weatherlink.com 1.10,2013-06-26 21:43:00,
2013-06-26 16:58:00,86.0,62.0,29.73,WNW,296,11.0,20.0,44,0.00,,,0.00,weatherlink.com 1.10,2013-06-26 21:58:00,
2013-06-26 17:13:00,86.0,63.0,29.73,NW,319,10.0,18.0,47,0.00,,,0.00,weatherlink.com 1.10,2013-06-26 22:13:00,
2013-06-26 17:28:00,86.0,62.0,29.73,WNW,301,12.0,16.0,45,0.00,,,0.00,weatherlink.com 1.10,2013-06-26 22:28:00,
2013-06-26 17:43:00,85.9,63.0,29.74,NW,316,10.0,21.0,46,0.00,,,0.00,weatherlink.com 1.10,2013-06-26 22:43:00,
2013-06-26 17:58:00,86.1,62.0,29.73,NE,45,16.0,18.0,45,0.00,,,0.00,weatherlink.com 1.10,2013-06-26 22:58:00,
2013-06-26 18:13:00,85.8,61.0,29.74,NNW,333,12.0,18.0,44,0.00,,,0.00,weatherlink.com 1.10,2013-06-26 23:13:00,
2013-06-26 18:28:00,85.7,63.0,29.73,NNW,341,9.0,14.0,47,0.00,,,0.00,weatherlink.com 1.10,2013-06-26 23:28:00,
2013-06-26 18:43:00,85.0,63.0,29.73,NW,316,6.0,13.0,47,0.00,,,0.00,weatherlink.com 1.10,2013-06-26 23:43:00,
2013-06-26 18:58:00,85.1,61.0,29.73,NW,312,7.0,12.0,45,0.00,,,0.00,weatherlink.com 1.10,2013-06-26 23:58:00,
2013-06-26 19:13:00,85.0,62.0,29.74,NW,307,5.0,10.0,46,0.00,,,0.00,weatherlink.com 1.10,2013-06-27 00:13:00,
2013-06-26 19:28:00,84.8,62.0,29.74,NW,309,4.0,9.0,47,0.00,,,0.00,weatherlink.com 1.10,2013-06-27 00:28:00,
2013-06-26 19:43:00,83.7,63.0,29.74,NNW,339,3.0,5.0,50,0.00,,,0.00,weatherlink.com 1.10,2013-06-27 00:43:00,
2013-06-26 19:58:00,83.7,64.0,29.74,NW,325,2.0,3.0,51,0.00,,,0.00,weatherlink.com 1.10,2013-06-27 00:58:00,
2013-06-26 20:13:00,82.4,63.0,29.74,NW,309,2.0,3.0,53,0.00,,,0.00,weatherlink.com 1.10,2013-06-27 01:13:00,
2013-06-26 20:28:00,81.6,63.0,29.75,NW,307,2.0,4.0,54,0.00,,,0.00,weatherlink.com 1.10,2013-06-27 01:28:00,
2013-06-26 20:43:00,78.6,64.0,29.75,NW,307,3.0,4.0,62,0.00,,,0.00,weatherlink.com 1.10,2013-06-27 01:43:00,
2013-06-26 20:58:00,76.9,65.0,29.76,WNW,288,4.0,4.0,67,0.00,,,0.00,weatherlink.com 1.10,2013-06-27 01:58:00,
2013-06-26 21:13:00,75.8,64.0,29.76,NW,308,3.0,4.0,68,0.00,,,0.00,weatherlink.com 1.10,2013-06-27 02:13:00,
2013-06-26 21:28:00,76.3,63.0,29.76,NW,307,2.0,2.0,64,0.00,,,0.00,weatherlink.com 1.10,2013-06-27 02:28:00,
2013-06-26 21:44:00,76.3,63.0,29.77,WNW,302,1.0,3.0,64,0.00,,,0.00,weatherlink.com 1.10,2013-06-27 02:44:00,
2013-06-26 21:59:00,75.6,63.0,29.77,NW,309,3.0,3.0,64,0.00,,,0.00,weatherlink.com 1.10,2013-06-27 02:59:00,
2013-06-26 22:14:00,75.3,63.0,29.78,NW,315,1.0,3.0,65,0.00,,,0.00,weatherlink.com 1.10,2013-06-27 03:14:00,
2013-06-26 22:29:00,74.3,63.0,29.78,WNW,296,1.0,1.0,67,0.00,,,0.00,weatherlink.com 1.10,2013-06-27 03:29:00,
2013-06-26 22:44:00,72.9,63.0,29.79,West,262,1.0,2.0,71,0.00,,,0.00,weatherlink.com 1.10,2013-06-27 03:44:00,
2013-06-26 22:59:00,72.8,63.0,29.79,WSW,250,1.0,1.0,71,0.00,,,0.00,weatherlink.com 1.10,2013-06-27 03:59:00,
2013-06-26 23:14:00,72.7,62.0,29.79,West,273,0.0,3.0,70,0.00,,,0.00,weatherlink.com 1.10,2013-06-27 04:14:00,
2013-06-26 23:29:00,71.6,63.0,29.78,West,276,1.0,1.0,73,0.00,,,0.00,weatherlink.com 1.10,2013-06-27 04:29:00,
2013-06-26 23:44:00,71.9,63.0,29.79,WSW,246,0.0,3.0,73,0.00,,,0.00,weatherlink.com 1.10,2013-06-27 04:44:00,
2013-06-26 23:59:00,70.6,62.0,29.80,WSW,246,0.0,1.0,75,0.00,,,0.00,weatherlink.com 1.10,2013-06-27 04:59:00,